createdAt,value
2023-02-05T00:01:57.969Z,103558.78
2023-02-05T00:04:25.117Z,103546.97
2023-02-05T00:06:52.247Z,103540.28
2023-02-05T00:09:19.289Z,103528.19
2023-02-05T00:11:46.337Z,103541.97
2023-02-05T00:14:13.914Z,103543.50
2023-02-05T00:16:40.972Z,103546.72
2023-02-05T00:19:08.022Z,103535.63
2023-02-05T00:21:35.255Z,103532.84
2023-02-05T00:24:02.386Z,103515.63
2023-02-05T00:26:29.469Z,103505.94
2023-02-05T00:28:57.107Z,103506.16
2023-02-05T00:31:24.856Z,103495.66
2023-02-05T00:33:52.732Z,103507.09
2023-02-05T00:36:23.779Z,103512.22
2023-02-05T00:38:53.335Z,103515.44
2023-02-05T00:41:20.642Z,103497.06
2023-02-05T00:43:47.785Z,103518.91
2023-02-05T00:46:15.426Z,103520.56
2023-02-05T00:48:44.046Z,103505.81
2023-02-05T00:51:11.442Z,103509.53
2023-02-05T00:53:38.536Z,103504.50
2023-02-05T00:56:06.198Z,103504.75
2023-02-05T00:58:33.511Z,103512.44
2023-02-05T01:01:00.634Z,103506.78
2023-02-05T01:03:28.282Z,103507.66
2023-02-05T01:05:55.370Z,103503.19
2023-02-05T01:08:22.675Z,103516.28
2023-02-05T01:10:51.168Z,103519.88
2023-02-05T01:13:18.848Z,103515.50
2023-02-05T01:15:46.032Z,103507.25
2023-02-05T01:18:13.556Z,103489.56
2023-02-05T01:20:42.309Z,103490.44
2023-02-05T01:23:10.196Z,103509.59
2023-02-05T01:25:38.001Z,103506.78
2023-02-05T01:28:07.066Z,103497.63
2023-02-05T01:30:34.912Z,103496.72
2023-02-05T01:33:02.686Z,103494.91
2023-02-05T01:35:30.120Z,103502.53
2023-02-05T01:37:57.221Z,103506.13
2023-02-05T01:40:24.501Z,103508.56
2023-02-05T01:42:51.546Z,103514.25
2023-02-05T01:45:33.456Z,103523.09
2023-02-05T01:48:02.806Z,103529.13
2023-02-05T01:50:35.931Z,103528.38
2023-02-05T01:53:08.158Z,103518.06
2023-02-05T01:55:40.424Z,103523.38
2023-02-05T01:58:07.538Z,103506.34
2023-02-05T02:00:34.673Z,103510.72
2023-02-05T02:03:02.029Z,103502.88
2023-02-05T02:05:29.114Z,103487.19
2023-02-05T02:07:56.340Z,103479.75
2023-02-05T02:10:24.612Z,103484.88
2023-02-05T02:12:53.084Z,103484.88
2023-02-05T02:15:23.665Z,103472.53
2023-02-05T02:17:55.818Z,103476.03
2023-02-05T02:20:29.600Z,103466.50
2023-02-05T02:23:25.708Z,103475.91
2023-02-05T02:26:04.201Z,103461.78
2023-02-05T02:28:44.864Z,103463.06
2023-02-05T02:31:18.622Z,103457.78
2023-02-05T02:33:49.312Z,103462.25
2023-02-05T02:36:30.148Z,103450.19
2023-02-05T02:39:02.758Z,103443.13
2023-02-05T02:41:43.219Z,103434.16
2023-02-05T02:44:17.048Z,103436.97
2023-02-05T02:46:55.448Z,103426.03
2023-02-05T02:49:33.550Z,103425.25
2023-02-05T02:52:04.548Z,103428.91
2023-02-05T02:54:33.708Z,103430.44
2023-02-05T02:57:03.173Z,103434.03
2023-02-05T02:59:35.957Z,103434.81
2023-02-05T03:02:06.920Z,103446.78
2023-02-05T03:04:38.499Z,103446.66
2023-02-05T03:07:22.900Z,103458.63
2023-02-05T03:09:56.964Z,103458.84
2023-02-05T03:12:24.437Z,103461.31
2023-02-05T03:14:52.692Z,103449.78
2023-02-05T03:17:21.445Z,103452.56
2023-02-05T03:19:54.930Z,103468.00
2023-02-05T03:22:22.050Z,103462.63
2023-02-05T03:24:50.608Z,103470.47
2023-02-05T03:27:17.682Z,103471.34
2023-02-05T03:29:45.024Z,103473.81
2023-02-05T03:32:35.129Z,103467.78
2023-02-05T03:35:20.337Z,103472.94
2023-02-05T03:38:10.936Z,103471.78
2023-02-05T03:40:55.374Z,103469.22
2023-02-05T03:43:47.350Z,103461.50
2023-02-05T03:46:28.516Z,103465.22
2023-02-05T03:49:17.137Z,103466.09
2023-02-05T03:51:59.525Z,103464.19
2023-02-05T03:54:46.545Z,103463.94
2023-02-05T03:57:35.286Z,103464.19
2023-02-05T04:00:03.092Z,103464.97
2023-02-05T04:02:30.329Z,103459.69
2023-02-05T04:04:57.463Z,103459.69
2023-02-05T04:07:24.550Z,103458.00
2023-02-05T04:09:51.614Z,103455.22
2023-02-05T04:12:18.670Z,103453.44
2023-02-05T04:14:45.887Z,103464.47
2023-02-05T04:17:13.056Z,103467.81
2023-02-05T04:19:41.440Z,103462.56
2023-02-05T04:22:08.504Z,103452.94
2023-02-05T04:24:35.758Z,103466.94
2023-02-05T04:27:02.793Z,103460.53
2023-02-05T04:29:29.908Z,103454.97
2023-02-05T04:31:57.440Z,103462.31
2023-02-05T04:34:24.691Z,103446.50
2023-02-05T04:36:51.743Z,103449.06
2023-02-05T04:39:18.796Z,103439.34
2023-02-05T04:41:45.841Z,103439.22
2023-02-05T04:44:12.911Z,103448.38
2023-02-05T04:46:39.995Z,103451.81
2023-02-05T04:49:07.147Z,103448.38
2023-02-05T04:51:34.228Z,103449.00
2023-02-05T04:54:01.520Z,103439.38
2023-02-05T04:56:28.775Z,103444.41
2023-02-05T04:58:55.878Z,103446.97
2023-02-05T05:01:23.568Z,103445.72
2023-02-05T05:03:51.186Z,103465.84
2023-02-05T05:06:18.993Z,103463.94
2023-02-05T05:08:46.413Z,103451.75
2023-02-05T05:11:16.453Z,103460.34
2023-02-05T05:13:44.416Z,103466.38
2023-02-05T05:16:12.606Z,103467.41
2023-02-05T05:18:40.447Z,103472.00
2023-02-05T05:21:08.702Z,103454.41
2023-02-05T05:23:37.266Z,103468.19
2023-02-05T05:26:09.427Z,103463.16
2023-02-05T05:28:37.422Z,103472.28
2023-02-05T05:31:14.422Z,103484.34
2023-02-05T05:33:41.481Z,103479.22
2023-02-05T05:36:09.035Z,103497.53
2023-02-05T05:38:36.112Z,103488.94
2023-02-05T05:41:23.097Z,103490.47
2023-02-05T05:43:52.011Z,103501.16
2023-02-05T05:46:23.777Z,103511.09
2023-02-05T05:48:53.309Z,103504.97
2023-02-05T05:51:21.937Z,103519.88
2023-02-05T05:53:49.317Z,103513.22
2023-02-05T05:56:17.098Z,103510.03
2023-02-05T05:58:44.984Z,103523.28
2023-02-05T06:01:14.121Z,103523.44
2023-02-05T06:03:41.211Z,103516.88
2023-02-05T06:06:10.443Z,103533.56
2023-02-05T06:08:37.616Z,103525.09
2023-02-05T06:11:04.810Z,103540.34
2023-02-05T06:13:31.942Z,103544.34
2023-02-05T06:15:59.052Z,103553.09
2023-02-05T06:18:26.087Z,103555.25
2023-02-05T06:20:53.211Z,103557.06
2023-02-05T06:23:20.331Z,103559.72
2023-02-05T06:25:47.445Z,103551.03
2023-02-05T06:28:14.557Z,103553.44
2023-02-05T06:30:41.647Z,103558.22
2023-02-05T06:33:08.748Z,103564.50
2023-02-05T06:35:36.657Z,103570.78
2023-02-05T06:38:04.750Z,103583.09
2023-02-05T06:40:31.748Z,103581.81
2023-02-05T06:42:58.886Z,103581.81
2023-02-05T06:45:25.980Z,103593.63
2023-02-05T06:47:55.936Z,103585.81
2023-02-05T06:50:24.049Z,103601.34
2023-02-05T06:52:51.718Z,103614.44
2023-02-05T06:55:18.791Z,103610.06
2023-02-05T06:57:45.861Z,103613.28
2023-02-05T07:00:13.997Z,103605.69
2023-02-05T07:02:41.443Z,103616.72
2023-02-05T07:05:09.116Z,103616.94
2023-02-05T07:07:36.258Z,103623.63
2023-02-05T07:10:04.285Z,103623.38
2023-02-05T07:12:31.390Z,103625.81
2023-02-05T07:14:58.613Z,103625.53
2023-02-05T07:17:26.024Z,103628.38
2023-02-05T07:19:53.287Z,103635.56
2023-02-05T07:22:20.450Z,103642.63
2023-02-05T07:24:47.565Z,103647.91
2023-02-05T07:27:14.691Z,103655.72
2023-02-05T07:29:41.791Z,103663.13
2023-02-05T07:32:08.999Z,103663.66
2023-02-05T07:34:36.154Z,103679.47
2023-02-05T07:37:03.805Z,103687.84
2023-02-05T07:39:31.123Z,103691.59
2023-02-05T07:41:58.406Z,103695.31
2023-02-05T07:44:25.465Z,103711.38
2023-02-05T07:46:53.132Z,103704.47
2023-02-05T07:49:20.211Z,103715.88
2023-02-05T07:51:47.687Z,103723.06
2023-02-05T07:54:15.684Z,103706.91
2023-02-05T07:56:42.805Z,103722.84
2023-02-05T07:59:10.071Z,103722.72
2023-02-05T08:01:37.256Z,103725.91
2023-02-05T08:04:04.402Z,103724.91
2023-02-05T08:06:33.509Z,103713.59
2023-02-05T08:09:00.917Z,103720.53
2023-02-05T08:11:28.376Z,103724.50
2023-02-05T08:13:55.506Z,103727.75
2023-02-05T08:16:23.052Z,103731.09
2023-02-05T08:18:51.045Z,103729.81
2023-02-05T08:21:19.426Z,103734.94
2023-02-05T08:23:46.527Z,103743.41
2023-02-05T08:26:15.582Z,103748.44
2023-02-05T08:28:42.977Z,103731.97
2023-02-05T08:31:16.512Z,103740.03
2023-02-05T08:33:44.072Z,103743.63
2023-02-05T08:36:11.581Z,103745.94
2023-02-05T08:38:38.919Z,103745.19
2023-02-05T08:41:12.543Z,103748.78
2023-02-05T08:43:41.700Z,103751.13
2023-02-05T08:46:10.122Z,103754.56
2023-02-05T08:48:37.759Z,103752.41
2023-02-05T08:51:08.359Z,103757.28
2023-02-05T08:53:35.917Z,103757.28
2023-02-05T08:56:05.210Z,103762.56
2023-02-05T08:58:33.185Z,103778.88
2023-02-05T09:01:02.615Z,103778.88
2023-02-05T09:03:30.673Z,103779.28
2023-02-05T09:05:59.171Z,103775.84
2023-02-05T09:08:29.863Z,103779.81
2023-02-05T09:10:58.644Z,103801.00
2023-02-05T09:13:25.877Z,103780.56
2023-02-05T09:15:53.261Z,103784.19
2023-02-05T09:18:20.603Z,103777.34
2023-02-05T09:20:50.116Z,103795.88
2023-02-05T09:23:19.030Z,103787.41
2023-02-05T09:25:46.544Z,103786.50
2023-02-05T09:28:14.742Z,103786.50
2023-02-05T09:30:44.208Z,103794.91
2023-02-05T09:33:12.149Z,103789.34
2023-02-05T09:35:39.295Z,103794.38
2023-02-05T09:38:06.425Z,103809.69
2023-02-05T09:40:45.607Z,103803.66
2023-02-05T09:43:26.420Z,103811.75
2023-02-05T09:46:00.306Z,103788.72
2023-02-05T09:48:53.018Z,103766.97
2023-02-05T09:51:34.126Z,103782.66
2023-02-05T09:54:15.176Z,103793.72
2023-02-05T09:56:44.196Z,103792.31
2023-02-05T09:59:17.206Z,103800.47
2023-02-05T10:01:58.226Z,103806.88
2023-02-05T10:04:27.355Z,103797.97
2023-02-05T10:07:03.659Z,103802.22
2023-02-05T10:10:04.940Z,103795.81
2023-02-05T10:12:34.951Z,103795.38
2023-02-05T10:15:20.401Z,103791.00
2023-02-05T10:18:08.531Z,103801.06
2023-02-05T10:20:38.844Z,103806.09
2023-02-05T10:23:07.079Z,103794.41
2023-02-05T10:26:09.814Z,103810.47
2023-02-05T10:29:03.591Z,103782.16
2023-02-05T10:31:39.364Z,103798.75
2023-02-05T10:34:38.759Z,103799.50
2023-02-05T10:37:14.719Z,103798.88
2023-02-05T10:39:41.891Z,103787.38
2023-02-05T10:42:27.250Z,103805.91
2023-02-05T10:45:13.241Z,103805.53
2023-02-05T10:47:49.754Z,103813.00
2023-02-05T10:50:30.744Z,103831.88
2023-02-05T10:52:58.325Z,103817.75
2023-02-05T10:55:25.400Z,103830.09
2023-02-05T10:57:52.504Z,103839.38
2023-02-05T11:00:22.251Z,103845.41
2023-02-05T11:02:54.714Z,103841.19
2023-02-05T11:05:36.909Z,103845.31
2023-02-05T11:08:04.363Z,103836.75
2023-02-05T11:10:35.088Z,103842.94
2023-02-05T11:13:16.774Z,103857.06
2023-02-05T11:16:06.518Z,103846.00
2023-02-05T11:18:41.208Z,103849.34
2023-02-05T11:21:09.835Z,103851.81
2023-02-05T11:23:39.971Z,103854.50
2023-02-05T11:26:20.082Z,103858.50
2023-02-05T11:28:47.474Z,103854.47
2023-02-05T11:31:31.418Z,103861.44
2023-02-05T11:34:07.305Z,103870.84
2023-02-05T11:36:36.223Z,103856.31
2023-02-05T11:39:05.241Z,103836.84
2023-02-05T11:41:53.962Z,103843.91
2023-02-05T11:44:36.541Z,103860.63
2023-02-05T11:47:03.964Z,103855.25
2023-02-05T11:49:37.891Z,103852.69
2023-02-05T11:52:16.847Z,103852.56
2023-02-05T11:54:46.941Z,103852.19
2023-02-05T11:57:14.623Z,103865.19
2023-02-05T11:59:42.653Z,103862.22
2023-02-05T12:02:33.551Z,103892.19
2023-02-05T12:05:07.806Z,103856.31
2023-02-05T12:07:42.542Z,103873.03
2023-02-05T12:10:28.813Z,103866.34
2023-02-05T12:13:06.967Z,103859.91
2023-02-05T12:15:54.505Z,103859.09
2023-02-05T12:19:00.293Z,103869.78
2023-02-05T12:21:44.251Z,103865.44
2023-02-05T12:24:24.558Z,103894.09
2023-02-05T12:27:03.020Z,103880.56
2023-02-05T12:29:55.616Z,103893.59
2023-02-05T12:32:25.710Z,103884.19
2023-02-05T12:35:12.217Z,103868.63
2023-02-05T12:38:00.959Z,103876.31
2023-02-05T12:41:04.939Z,103858.50
2023-02-05T12:43:40.977Z,103878.16
2023-02-05T12:46:35.338Z,103869.41
2023-02-05T12:49:02.517Z,103873.88
2023-02-05T12:51:55.958Z,103872.75
2023-02-05T12:54:55.347Z,103864.50
2023-02-05T12:57:45.461Z,103880.84
2023-02-05T13:00:37.881Z,103880.47
2023-02-05T13:03:30.594Z,103873.66
2023-02-05T13:06:02.601Z,103884.94
2023-02-05T13:08:42.746Z,103876.19
2023-02-05T13:11:09.745Z,103883.78
2023-02-05T13:13:53.459Z,103863.94
2023-02-05T13:16:24.235Z,103882.56
2023-02-05T13:19:00.417Z,103883.50
2023-02-05T13:21:47.443Z,103881.41
2023-02-05T13:24:49.482Z,103888.56
2023-02-05T13:27:42.063Z,103883.41
2023-02-05T13:30:16.830Z,103895.06
2023-02-05T13:32:49.144Z,103893.78
2023-02-05T13:35:16.515Z,103885.44
2023-02-05T13:37:58.889Z,103910.41
2023-02-05T13:40:51.053Z,103901.03
2023-02-05T13:43:36.120Z,103912.13
2023-02-05T13:46:40.523Z,103921.50
2023-02-05T13:50:04.726Z,103913.78
2023-02-05T13:52:52.996Z,103916.34
2023-02-05T13:55:50.763Z,103920.84
2023-02-05T13:58:25.240Z,103922.66
2023-02-05T14:00:58.550Z,103915.47
2023-02-05T14:03:44.265Z,103919.19
2023-02-05T14:06:21.979Z,103927.31
2023-02-05T14:08:57.332Z,103926.53
2023-02-05T14:11:24.761Z,103938.00
2023-02-05T14:14:16.188Z,103930.53
2023-02-05T14:16:45.794Z,103928.19
2023-02-05T14:19:25.555Z,103931.41
2023-02-05T14:22:07.470Z,103934.38
2023-02-05T14:24:50.457Z,103936.41
2023-02-05T14:27:41.886Z,103938.47
2023-02-05T14:30:30.746Z,103936.91
2023-02-05T14:33:02.589Z,103938.84
2023-02-05T14:35:32.676Z,103932.06
2023-02-05T14:38:02.659Z,103941.88
2023-02-05T14:40:36.553Z,103933.78
2023-02-05T14:43:28.449Z,103946.94
2023-02-05T14:45:55.593Z,103943.31
2023-02-05T14:48:28.826Z,103948.34
2023-02-05T14:51:21.970Z,103947.69
2023-02-05T14:54:23.414Z,103954.41
2023-02-05T14:56:54.176Z,103946.94
2023-02-05T14:59:29.942Z,103964.19
2023-02-05T15:01:59.812Z,103963.31
2023-02-05T15:04:49.414Z,103962.53
2023-02-05T15:07:24.015Z,103950.44
2023-02-05T15:10:07.320Z,103963.03
2023-02-05T15:12:53.851Z,103962.50
2023-02-05T15:15:30.760Z,103938.06
2023-02-05T15:18:20.919Z,103962.13
2023-02-05T15:20:51.841Z,103959.66
2023-02-05T15:23:22.068Z,103972.81
2023-02-05T15:26:01.181Z,103972.19
2023-02-05T15:29:14.196Z,103969.06
2023-02-05T15:31:57.636Z,103977.72
2023-02-05T15:34:48.134Z,103992.13
2023-02-05T15:37:35.248Z,103979.25
2023-02-05T15:40:29.143Z,104000.50
2023-02-05T15:43:00.998Z,103983.75
2023-02-05T15:45:31.890Z,103993.03
2023-02-05T15:48:13.310Z,104013.25
2023-02-05T15:50:49.511Z,104018.25
2023-02-05T15:53:37.230Z,104021.56
2023-02-05T15:56:14.669Z,104017.84
2023-02-05T15:58:49.243Z,104018.38
2023-02-05T16:01:30.121Z,104020.06
2023-02-05T16:03:57.562Z,104029.38
2023-02-05T16:06:27.492Z,104027.09
2023-02-05T16:08:55.323Z,104036.47
2023-02-05T16:11:33.993Z,104041.31
2023-02-05T16:14:06.537Z,104048.91
2023-02-05T16:16:37.388Z,104029.97
2023-02-05T16:19:08.910Z,104061.66
2023-02-05T16:21:42.986Z,104055.19
2023-02-05T16:24:22.349Z,104057.22
2023-02-05T16:26:58.948Z,104065.44
2023-02-05T16:29:47.009Z,104075.09
2023-02-05T16:32:30.396Z,104082.06
2023-02-05T16:35:00.134Z,104072.00
2023-02-05T16:37:30.416Z,104073.66
2023-02-05T16:40:01.248Z,104080.88
2023-02-05T16:42:42.957Z,104089.91
2023-02-05T16:45:12.989Z,104083.94
2023-02-05T16:47:40.087Z,104085.16
2023-02-05T16:50:41.066Z,104081.31
2023-02-05T16:53:37.420Z,104100.00
2023-02-05T16:56:22.024Z,104104.69
2023-02-05T16:58:53.297Z,104116.03
2023-02-05T17:01:30.851Z,104111.66
2023-02-05T17:03:58.644Z,104113.97
2023-02-05T17:06:33.797Z,104105.19
2023-02-05T17:09:01.420Z,104100.53
2023-02-05T17:11:40.462Z,104111.75
2023-02-05T17:14:17.817Z,104108.25
2023-02-05T17:16:54.806Z,104122.16
2023-02-05T17:19:25.893Z,104119.91
2023-02-05T17:22:14.672Z,104116.69
2023-02-05T17:24:42.893Z,104126.53
2023-02-05T17:27:15.763Z,104127.94
2023-02-05T17:29:43.263Z,104124.81
2023-02-05T17:32:16.977Z,104127.81
2023-02-05T17:34:44.741Z,104110.28
2023-02-05T17:37:12.092Z,104115.00
2023-02-05T17:39:39.896Z,104115.50
2023-02-05T17:42:17.029Z,104117.00
2023-02-05T17:44:44.169Z,104119.16
2023-02-05T17:47:11.461Z,104122.22
2023-02-05T17:49:38.673Z,104115.75
2023-02-05T17:52:06.315Z,104124.38
2023-02-05T17:54:33.529Z,104126.81
2023-02-05T17:57:21.954Z,104128.31
2023-02-05T17:59:49.916Z,104136.78
2023-02-05T18:02:17.623Z,104135.72
2023-02-05T18:04:45.282Z,104130.03
2023-02-05T18:07:29.736Z,104136.34
2023-02-05T18:09:57.599Z,104143.50
2023-02-05T18:12:25.193Z,104132.16
2023-02-05T18:14:53.476Z,104137.13
2023-02-05T18:17:20.546Z,104134.88
2023-02-05T18:19:47.549Z,104152.38
2023-02-05T18:22:14.733Z,104143.38
2023-02-05T18:24:42.259Z,104145.56
2023-02-05T18:27:09.743Z,104148.00
2023-02-05T18:29:38.122Z,104133.22
2023-02-05T18:32:06.877Z,104136.06
2023-02-05T18:34:34.055Z,104138.03
2023-02-05T18:42:45.884Z,104147.59
2023-02-05T18:45:13.228Z,104153.78
2023-02-05T18:47:40.283Z,104157.59
2023-02-05T18:50:10.122Z,104157.28
2023-02-05T18:52:37.684Z,104160.19
2023-02-05T18:55:05.858Z,104154.97
2023-02-05T18:57:32.900Z,104161.13
2023-02-05T18:59:59.895Z,104169.94
2023-02-05T19:02:27.116Z,104163.59
2023-02-05T19:04:56.178Z,104169.50
2023-02-05T19:07:24.773Z,104168.44
2023-02-05T19:09:52.174Z,104165.59
2023-02-05T19:12:19.246Z,104167.59
2023-02-05T19:14:46.350Z,104176.66
2023-02-05T19:17:13.371Z,104153.75
2023-02-05T19:19:40.470Z,104175.47
2023-02-05T19:22:07.598Z,104178.34
2023-02-05T19:24:36.026Z,104184.66
2023-02-05T19:27:03.494Z,104193.28
2023-02-05T19:29:30.737Z,104182.47
2023-02-05T19:31:58.784Z,104187.72
2023-02-05T19:34:27.851Z,104203.84
2023-02-05T19:36:55.035Z,104198.56
2023-02-05T19:39:22.232Z,104190.25
2023-02-05T19:41:49.347Z,104188.31
2023-02-05T19:44:16.427Z,104199.16
2023-02-05T19:46:44.678Z,104204.75
2023-02-05T19:49:15.592Z,104211.72
2023-02-05T19:51:47.579Z,104217.28
2023-02-05T19:54:15.589Z,104208.56
2023-02-05T19:56:43.790Z,104207.63
2023-02-05T19:59:11.114Z,104197.97
2023-02-05T20:01:40.016Z,104219.53
2023-02-05T20:04:10.810Z,104217.88
2023-02-05T20:06:38.671Z,104208.66
2023-02-05T20:09:10.285Z,104200.09
2023-02-05T20:11:38.587Z,104191.94
2023-02-05T20:14:06.326Z,104204.00
2023-02-05T20:16:35.132Z,104196.03
2023-02-05T20:19:02.847Z,104196.47
2023-02-05T20:21:30.994Z,104195.72
2023-02-05T20:23:58.126Z,104193.47
2023-02-05T20:26:25.945Z,104201.00
2023-02-05T20:29:13.826Z,104207.03
2023-02-05T20:31:45.005Z,104186.38
2023-02-05T20:34:30.978Z,104210.34
2023-02-05T20:37:00.679Z,104209.75
2023-02-05T20:39:29.361Z,104207.19
2023-02-05T20:41:58.977Z,104198.47
2023-02-05T20:44:28.748Z,104210.81
2023-02-05T20:46:56.862Z,104207.81
2023-02-05T20:49:24.308Z,104219.88
2023-02-05T20:51:53.223Z,104222.28
2023-02-05T20:54:22.126Z,104235.25
2023-02-05T20:56:56.825Z,104247.94
2023-02-05T20:59:24.762Z,104232.38
2023-02-05T21:01:52.508Z,104248.22
2023-02-05T21:04:20.479Z,104247.03
2023-02-05T21:06:48.209Z,104239.03
2023-02-05T21:09:16.259Z,104246.88
2023-02-05T21:11:43.311Z,104245.19
2023-02-05T21:14:10.643Z,104209.47
2023-02-05T21:16:37.966Z,104239.03
2023-02-05T21:19:07.184Z,104233.13
2023-02-05T21:21:37.138Z,104227.84
2023-02-05T21:24:11.596Z,104231.31
2023-02-05T21:26:41.175Z,104237.19
2023-02-05T21:29:14.335Z,104233.44
2023-02-05T21:31:46.790Z,104225.00
2023-02-05T21:34:17.722Z,104222.28
2023-02-05T21:36:45.515Z,104223.66
2023-02-05T21:39:12.662Z,104231.03
2023-02-05T21:41:39.773Z,104235.53
2023-02-05T21:44:06.977Z,104229.34
2023-02-05T21:46:34.478Z,104236.13
2023-02-05T21:49:01.604Z,104243.19
2023-02-05T21:51:31.003Z,104251.63
2023-02-05T21:54:01.273Z,104241.50
2023-02-05T21:56:34.890Z,104251.16
2023-02-05T21:59:02.509Z,104261.81
2023-02-05T22:01:32.244Z,104257.28
2023-02-05T22:04:10.402Z,104256.41
2023-02-05T22:06:38.017Z,104249.75
2023-02-05T22:09:08.556Z,104249.47
2023-02-05T22:11:35.869Z,104252.16
2023-02-05T22:14:03.746Z,104254.38
2023-02-05T22:16:33.088Z,104253.91
2023-02-05T22:19:01.132Z,104275.19
2023-02-05T22:21:33.985Z,104283.16
2023-02-05T22:24:02.683Z,104279.63
2023-02-05T22:26:38.042Z,104291.28
2023-02-05T22:29:08.485Z,104285.84
2023-02-05T22:31:35.974Z,104290.66
2023-02-05T22:34:03.694Z,104278.28
2023-02-05T22:36:32.319Z,104289.75
2023-02-05T22:38:59.953Z,104292.44
2023-02-05T22:41:30.284Z,104294.53
2023-02-05T22:43:59.343Z,104300.44
2023-02-05T22:46:29.416Z,104294.38
2023-02-05T22:48:58.965Z,104285.63
2023-02-05T22:51:29.273Z,104292.56
2023-02-05T22:53:56.780Z,104291.53
2023-02-05T22:56:24.483Z,104273.41
2023-02-05T22:58:53.259Z,104273.88
2023-02-05T23:01:28.316Z,104267.78
2023-02-05T23:03:57.097Z,104263.56
2023-02-05T23:06:26.852Z,104268.53
2023-02-05T23:08:58.421Z,104271.41
2023-02-05T23:11:27.920Z,104262.34
2023-02-05T23:13:56.153Z,104264.16
2023-02-05T23:16:26.926Z,104268.88
2023-02-05T23:18:57.974Z,104269.94
2023-02-05T23:21:27.836Z,104279.09
2023-02-05T23:23:55.250Z,104260.69
2023-02-05T23:26:25.145Z,104266.31
2023-02-05T23:28:54.045Z,104261.59
2023-02-05T23:31:22.512Z,104262.66
2023-02-05T23:33:49.971Z,104271.41
2023-02-05T23:36:17.777Z,104257.22
2023-02-05T23:38:44.895Z,104245.50
2023-02-05T23:41:12.322Z,104257.13
2023-02-05T23:43:40.129Z,104259.88
2023-02-05T23:46:07.778Z,104257.66
2023-02-05T23:48:35.857Z,104259.75
2023-02-05T23:51:02.995Z,104257.66
2023-02-05T23:53:30.099Z,104260.81
2023-02-05T23:55:57.103Z,104262.19
2023-02-05T23:58:25.943Z,104259.63
